sensor_id;sensor_type;location;lat;lon;timestamp;P1;durP1;ratioP1;P2;durP2;ratioP2
33270;SDS011;53180;51.344;6.152;2023-04-03T00:01:23;3.65;;;3.35;;
33270;SDS011;53180;51.344;6.152;2023-04-03T00:03:52;3.63;;;3.40;;
33270;SDS011;53180;51.344;6.152;2023-04-03T00:06:21;3.30;;;3.03;;
33270;SDS011;53180;51.344;6.152;2023-04-03T00:08:51;4.07;;;3.78;;
33270;SDS011;53180;51.344;6.152;2023-04-03T00:11:19;3.67;;;3.38;;
33270;SDS011;53180;51.344;6.152;2023-04-03T00:13:48;3.42;;;3.22;;
33270;SDS011;53180;51.344;6.152;2023-04-03T00:16:16;3.20;;;3.00;;
33270;SDS011;53180;51.344;6.152;2023-04-03T00:18:44;3.67;;;3.47;;
33270;SDS011;53180;51.344;6.152;2023-04-03T00:21:14;3.65;;;3.35;;
33270;SDS011;53180;51.344;6.152;2023-04-03T00:23:42;3.63;;;3.42;;
33270;SDS011;53180;51.344;6.152;2023-04-03T00:26:11;4.05;;;3.75;;
33270;SDS011;53180;51.344;6.152;2023-04-03T00:28:39;5.30;;;3.30;;
33270;SDS011;53180;51.344;6.152;2023-04-03T00:31:08;3.85;;;3.50;;
33270;SDS011;53180;51.344;6.152;2023-04-03T00:33:37;3.33;;;3.03;;
33270;SDS011;53180;51.344;6.152;2023-04-03T00:36:06;4.13;;;3.63;;
33270;SDS011;53180;51.344;6.152;2023-04-03T00:38:37;4.00;;;3.70;;
33270;SDS011;53180;51.344;6.152;2023-04-03T00:41:06;3.40;;;3.20;;
33270;SDS011;53180;51.344;6.152;2023-04-03T00:43:34;3.97;;;3.67;;
33270;SDS011;53180;51.344;6.152;2023-04-03T00:46:03;3.78;;;3.58;;
33270;SDS011;53180;51.344;6.152;2023-04-03T00:48:32;3.72;;;3.42;;
33270;SDS011;53180;51.344;6.152;2023-04-03T00:51:06;3.85;;;3.65;;
33270;SDS011;53180;51.344;6.152;2023-04-03T00:53:43;3.85;;;3.55;;
33270;SDS011;53180;51.344;6.152;2023-04-03T00:56:16;3.88;;;3.58;;
33270;SDS011;53180;51.344;6.152;2023-04-03T00:58:49;4.18;;;3.88;;
33270;SDS011;53180;51.344;6.152;2023-04-03T01:01:21;3.65;;;3.35;;
33270;SDS011;53180;51.344;6.152;2023-04-03T01:06:21;4.32;;;4.03;;
33270;SDS011;53180;51.344;6.152;2023-04-03T01:08:55;3.67;;;3.47;;
33270;SDS011;53180;51.344;6.152;2023-04-03T01:11:24;4.20;;;3.90;;
33270;SDS011;53180;51.344;6.152;2023-04-03T01:13:53;4.53;;;4.13;;
33270;SDS011;53180;51.344;6.152;2023-04-03T01:16:21;3.92;;;3.63;;
33270;SDS011;53180;51.344;6.152;2023-04-03T01:18:50;3.75;;;3.47;;
33270;SDS011;53180;51.344;6.152;2023-04-03T01:21:38;3.92;;;3.53;;
33270;SDS011;53180;51.344;6.152;2023-04-03T01:24:40;4.25;;;3.85;;
33270;SDS011;53180;51.344;6.152;2023-04-03T01:27:09;4.00;;;3.70;;
33270;SDS011;53180;51.344;6.152;2023-04-03T01:29:39;4.10;;;3.80;;
33270;SDS011;53180;51.344;6.152;2023-04-03T01:32:11;4.53;;;4.18;;
33270;SDS011;53180;51.344;6.152;2023-04-03T01:34:39;4.03;;;3.72;;
33270;SDS011;53180;51.344;6.152;2023-04-03T01:37:08;3.72;;;3.50;;
33270;SDS011;53180;51.344;6.152;2023-04-03T01:39:36;4.10;;;3.80;;
33270;SDS011;53180;51.344;6.152;2023-04-03T01:42:04;4.00;;;3.70;;
33270;SDS011;53180;51.344;6.152;2023-04-03T01:44:33;4.32;;;4.03;;
33270;SDS011;53180;51.344;6.152;2023-04-03T01:47:01;4.28;;;3.97;;
33270;SDS011;53180;51.344;6.152;2023-04-03T01:49:34;4.53;;;4.22;;
33270;SDS011;53180;51.344;6.152;2023-04-03T01:52:02;4.13;;;3.83;;
33270;SDS011;53180;51.344;6.152;2023-04-03T01:54:31;3.80;;;3.58;;
33270;SDS011;53180;51.344;6.152;2023-04-03T01:56:59;4.05;;;3.75;;
33270;SDS011;53180;51.344;6.152;2023-04-03T01:59:28;4.32;;;4.00;;
33270;SDS011;53180;51.344;6.152;2023-04-03T02:01:56;4.25;;;3.90;;
33270;SDS011;53180;51.344;6.152;2023-04-03T02:04:24;4.10;;;3.80;;
33270;SDS011;53180;51.344;6.152;2023-04-03T02:06:54;3.85;;;3.55;;
33270;SDS011;53180;51.344;6.152;2023-04-03T02:09:23;4.10;;;3.80;;
33270;SDS011;53180;51.344;6.152;2023-04-03T02:11:52;4.30;;;4.00;;
33270;SDS011;53180;51.344;6.152;2023-04-03T02:14:21;4.68;;;4.28;;
33270;SDS011;53180;51.344;6.152;2023-04-03T02:16:49;3.97;;;3.67;;
33270;SDS011;53180;51.344;6.152;2023-04-03T02:19:18;4.28;;;3.97;;
33270;SDS011;53180;51.344;6.152;2023-04-03T02:21:47;4.03;;;3.72;;
33270;SDS011;53180;51.344;6.152;2023-04-03T02:24:16;4.18;;;3.88;;
33270;SDS011;53180;51.344;6.152;2023-04-03T02:26:45;5.05;;;4.55;;
33270;SDS011;53180;51.344;6.152;2023-04-03T02:29:13;5.80;;;4.22;;
33270;SDS011;53180;51.344;6.152;2023-04-03T02:31:41;4.60;;;4.30;;
33270;SDS011;53180;51.344;6.152;2023-04-03T02:34:09;4.38;;;4.07;;
33270;SDS011;53180;51.344;6.152;2023-04-03T02:36:38;4.40;;;4.10;;
33270;SDS011;53180;51.344;6.152;2023-04-03T02:39:06;4.63;;;4.22;;
33270;SDS011;53180;51.344;6.152;2023-04-03T02:41:36;3.97;;;3.67;;
33270;SDS011;53180;51.344;6.152;2023-04-03T02:44:05;4.90;;;4.60;;
33270;SDS011;53180;51.344;6.152;2023-04-03T02:49:04;5.03;;;4.63;;
33270;SDS011;53180;51.344;6.152;2023-04-03T02:51:33;6.10;;;4.35;;
33270;SDS011;53180;51.344;6.152;2023-04-03T02:54:01;4.10;;;3.80;;
33270;SDS011;53180;51.344;6.152;2023-04-03T02:56:29;4.43;;;4.03;;
33270;SDS011;53180;51.344;6.152;2023-04-03T02:58:59;4.43;;;4.10;;
33270;SDS011;53180;51.344;6.152;2023-04-03T03:01:28;4.40;;;4.10;;
33270;SDS011;53180;51.344;6.152;2023-04-03T03:03:58;4.43;;;4.05;;
33270;SDS011;53180;51.344;6.152;2023-04-03T03:06:27;3.90;;;3.67;;
33270;SDS011;53180;51.344;6.152;2023-04-03T03:08:56;4.30;;;4.00;;
33270;SDS011;53180;51.344;6.152;2023-04-03T03:11:24;4.43;;;4.10;;
33270;SDS011;53180;51.344;6.152;2023-04-03T03:13:52;4.22;;;3.92;;
33270;SDS011;53180;51.344;6.152;2023-04-03T03:16:22;3.50;;;3.30;;
33270;SDS011;53180;51.344;6.152;2023-04-03T03:18:50;4.95;;;4.28;;
33270;SDS011;53180;51.344;6.152;2023-04-03T03:21:19;4.72;;;4.32;;
33270;SDS011;53180;51.344;6.152;2023-04-03T03:23:47;4.18;;;3.78;;
33270;SDS011;53180;51.344;6.152;2023-04-03T03:26:15;4.32;;;3.92;;
33270;SDS011;53180;51.344;6.152;2023-04-03T03:28:43;4.30;;;3.90;;
33270;SDS011;53180;51.344;6.152;2023-04-03T03:31:12;3.95;;;3.55;;
33270;SDS011;53180;51.344;6.152;2023-04-03T03:33:43;3.85;;;3.55;;
33270;SDS011;53180;51.344;6.152;2023-04-03T03:36:11;3.92;;;3.63;;
33270;SDS011;53180;51.344;6.152;2023-04-03T03:38:39;12.82;;;9.13;;
33270;SDS011;53180;51.344;6.152;2023-04-03T03:41:08;3.80;;;3.60;;
33270;SDS011;53180;51.344;6.152;2023-04-03T03:43:36;3.78;;;3.50;;
33270;SDS011;53180;51.344;6.152;2023-04-03T03:46:04;3.83;;;3.53;;
33270;SDS011;53180;51.344;6.152;2023-04-03T03:48:33;4.32;;;3.63;;
33270;SDS011;53180;51.344;6.152;2023-04-03T03:51:03;3.80;;;3.50;;
33270;SDS011;53180;51.344;6.152;2023-04-03T03:53:31;4.07;;;3.78;;
33270;SDS011;53180;51.344;6.152;2023-04-03T03:55:59;4.00;;;3.70;;
33270;SDS011;53180;51.344;6.152;2023-04-03T03:58:27;3.38;;;3.17;;
33270;SDS011;53180;51.344;6.152;2023-04-03T04:00:56;3.38;;;3.17;;
33270;SDS011;53180;51.344;6.152;2023-04-03T04:03:25;3.95;;;3.60;;
33270;SDS011;53180;51.344;6.152;2023-04-03T04:05:53;4.13;;;3.83;;
33270;SDS011;53180;51.344;6.152;2023-04-03T04:08:23;3.58;;;3.38;;
33270;SDS011;53180;51.344;6.152;2023-04-03T04:10:51;3.47;;;3.20;;
33270;SDS011;53180;51.344;6.152;2023-04-03T04:13:20;3.65;;;3.38;;
33270;SDS011;53180;51.344;6.152;2023-04-03T04:15:48;4.20;;;3.80;;
33270;SDS011;53180;51.344;6.152;2023-04-03T04:18:17;3.50;;;3.20;;
33270;SDS011;53180;51.344;6.152;2023-04-03T04:20:46;3.92;;;3.63;;
33270;SDS011;53180;51.344;6.152;2023-04-03T04:23:15;3.30;;;3.10;;
33270;SDS011;53180;51.344;6.152;2023-04-03T04:25:46;7.30;;;4.68;;
33270;SDS011;53180;51.344;6.152;2023-04-03T04:28:15;4.93;;;4.53;;
33270;SDS011;53180;51.344;6.152;2023-04-03T04:30:44;3.75;;;3.45;;
33270;SDS011;53180;51.344;6.152;2023-04-03T04:33:12;5.28;;;3.65;;
33270;SDS011;53180;51.344;6.152;2023-04-03T04:35:41;3.80;;;3.50;;
33270;SDS011;53180;51.344;6.152;2023-04-03T04:38:10;3.95;;;3.58;;
33270;SDS011;53180;51.344;6.152;2023-04-03T04:40:38;3.33;;;3.13;;
33270;SDS011;53180;51.344;6.152;2023-04-03T04:43:09;3.42;;;3.13;;
33270;SDS011;53180;51.344;6.152;2023-04-03T04:45:40;3.85;;;3.55;;
33270;SDS011;53180;51.344;6.152;2023-04-03T04:48:09;3.58;;;3.33;;
33270;SDS011;53180;51.344;6.152;2023-04-03T04:50:37;3.75;;;3.45;;
33270;SDS011;53180;51.344;6.152;2023-04-03T04:53:06;3.78;;;3.47;;
33270;SDS011;53180;51.344;6.152;2023-04-03T04:55:34;3.55;;;3.35;;
33270;SDS011;53180;51.344;6.152;2023-04-03T04:58:03;3.53;;;3.33;;
33270;SDS011;53180;51.344;6.152;2023-04-03T05:00:33;3.15;;;2.95;;
33270;SDS011;53180;51.344;6.152;2023-04-03T05:03:01;4.68;;;3.55;;
33270;SDS011;53180;51.344;6.152;2023-04-03T05:05:30;3.85;;;3.55;;
33270;SDS011;53180;51.344;6.152;2023-04-03T05:07:58;3.90;;;3.60;;
33270;SDS011;53180;51.344;6.152;2023-04-03T05:10:26;3.00;;;2.80;;
33270;SDS011;53180;51.344;6.152;2023-04-03T05:12:55;3.53;;;3.33;;
33270;SDS011;53180;51.344;6.152;2023-04-03T05:15:23;3.25;;;3.05;;
33270;SDS011;53180;51.344;6.152;2023-04-03T05:17:53;3.58;;;3.38;;
33270;SDS011;53180;51.344;6.152;2023-04-03T05:20:22;3.40;;;3.20;;
33270;SDS011;53180;51.344;6.152;2023-04-03T05:22:51;3.58;;;3.30;;
33270;SDS011;53180;51.344;6.152;2023-04-03T05:25:19;3.83;;;3.53;;
33270;SDS011;53180;51.344;6.152;2023-04-03T05:27:47;3.42;;;3.10;;
33270;SDS011;53180;51.344;6.152;2023-04-03T05:30:16;3.45;;;3.25;;
33270;SDS011;53180;51.344;6.152;2023-04-03T05:32:45;3.50;;;3.20;;
33270;SDS011;53180;51.344;6.152;2023-04-03T05:35:16;3.35;;;3.15;;
33270;SDS011;53180;51.344;6.152;2023-04-03T05:37:44;2.95;;;2.75;;
33270;SDS011;53180;51.344;6.152;2023-04-03T05:40:13;3.55;;;3.25;;
33270;SDS011;53180;51.344;6.152;2023-04-03T05:42:43;3.30;;;3.10;;
33270;SDS011;53180;51.344;6.152;2023-04-03T05:45:12;3.65;;;3.30;;
33270;SDS011;53180;51.344;6.152;2023-04-03T05:47:40;3.65;;;3.45;;
33270;SDS011;53180;51.344;6.152;2023-04-03T05:50:09;3.63;;;3.33;;
33270;SDS011;53180;51.344;6.152;2023-04-03T05:52:40;4.07;;;3.70;;
33270;SDS011;53180;51.344;6.152;2023-04-03T05:55:12;3.67;;;3.17;;
33270;SDS011;53180;51.344;6.152;2023-04-03T05:57:41;3.58;;;3.25;;
33270;SDS011;53180;51.344;6.152;2023-04-03T06:00:11;3.60;;;3.30;;
33270;SDS011;53180;51.344;6.152;2023-04-03T06:02:42;3.30;;;3.10;;
33270;SDS011;53180;51.344;6.152;2023-04-03T06:05:10;3.35;;;3.15;;
33270;SDS011;53180;51.344;6.152;2023-04-03T06:07:40;3.20;;;3.00;;
33270;SDS011;53180;51.344;6.152;2023-04-03T06:10:10;3.80;;;3.50;;
33270;SDS011;53180;51.344;6.152;2023-04-03T06:12:40;3.17;;;2.97;;
33270;SDS011;53180;51.344;6.152;2023-04-03T06:15:08;4.70;;;3.38;;
33270;SDS011;53180;51.344;6.152;2023-04-03T06:17:38;3.30;;;3.00;;
33270;SDS011;53180;51.344;6.152;2023-04-03T06:20:06;4.78;;;2.90;;
33270;SDS011;53180;51.344;6.152;2023-04-03T06:22:36;3.03;;;2.83;;
33270;SDS011;53180;51.344;6.152;2023-04-03T06:25:06;7.78;;;2.67;;
33270;SDS011;53180;51.344;6.152;2023-04-03T06:27:37;3.38;;;3.08;;
33270;SDS011;53180;51.344;6.152;2023-04-03T06:30:06;3.00;;;2.80;;
33270;SDS011;53180;51.344;6.152;2023-04-03T06:32:35;2.60;;;2.40;;
33270;SDS011;53180;51.344;6.152;2023-04-03T06:35:04;2.80;;;2.60;;
33270;SDS011;53180;51.344;6.152;2023-04-03T06:37:34;2.50;;;2.30;;
33270;SDS011;53180;51.344;6.152;2023-04-03T06:40:03;2.58;;;2.38;;
33270;SDS011;53180;51.344;6.152;2023-04-03T06:42:37;3.53;;;2.90;;
33270;SDS011;53180;51.344;6.152;2023-04-03T06:45:06;2.63;;;2.42;;
33270;SDS011;53180;51.344;6.152;2023-04-03T06:47:36;2.83;;;2.42;;
33270;SDS011;53180;51.344;6.152;2023-04-03T06:50:05;4.45;;;2.58;;
33270;SDS011;53180;51.344;6.152;2023-04-03T06:52:35;2.45;;;2.10;;
33270;SDS011;53180;51.344;6.152;2023-04-03T06:55:03;2.47;;;2.25;;
33270;SDS011;53180;51.344;6.152;2023-04-03T07:00:04;2.83;;;2.50;;
33270;SDS011;53180;51.344;6.152;2023-04-03T07:02:35;2.42;;;2.22;;
33270;SDS011;53180;51.344;6.152;2023-04-03T07:05:04;2.50;;;2.30;;
33270;SDS011;53180;51.344;6.152;2023-04-03T07:07:33;1.90;;;1.80;;
33270;SDS011;53180;51.344;6.152;2023-04-03T07:10:01;2.60;;;2.40;;
33270;SDS011;53180;51.344;6.152;2023-04-03T07:12:32;3.13;;;2.00;;
33270;SDS011;53180;51.344;6.152;2023-04-03T07:15:00;2.28;;;2.17;;
33270;SDS011;53180;51.344;6.152;2023-04-03T07:17:29;3.95;;;2.08;;
33270;SDS011;53180;51.344;6.152;2023-04-03T07:19:57;2.53;;;2.20;;
33270;SDS011;53180;51.344;6.152;2023-04-03T07:22:25;5.38;;;2.20;;
33270;SDS011;53180;51.344;6.152;2023-04-03T07:24:54;2.55;;;2.20;;
33270;SDS011;53180;51.344;6.152;2023-04-03T07:27:22;3.35;;;2.05;;
33270;SDS011;53180;51.344;6.152;2023-04-03T07:29:52;2.97;;;2.15;;
33270;SDS011;53180;51.344;6.152;2023-04-03T07:32:22;2.35;;;2.13;;
33270;SDS011;53180;51.344;6.152;2023-04-03T07:34:50;7.40;;;2.33;;
33270;SDS011;53180;51.344;6.152;2023-04-03T07:37:18;2.20;;;2.03;;
33270;SDS011;53180;51.344;6.152;2023-04-03T07:39:47;1.88;;;1.77;;
33270;SDS011;53180;51.344;6.152;2023-04-03T07:42:15;2.53;;;1.98;;
33270;SDS011;53180;51.344;6.152;2023-04-03T07:44:44;4.50;;;2.03;;
33270;SDS011;53180;51.344;6.152;2023-04-03T07:47:14;2.08;;;1.80;;
33270;SDS011;53180;51.344;6.152;2023-04-03T07:49:43;3.78;;;1.85;;
33270;SDS011;53180;51.344;6.152;2023-04-03T07:52:11;8.60;;;2.22;;
33270;SDS011;53180;51.344;6.152;2023-04-03T07:54:41;4.32;;;2.13;;
33270;SDS011;53180;51.344;6.152;2023-04-03T07:57:09;2.65;;;2.17;;
33270;SDS011;53180;51.344;6.152;2023-04-03T07:59:38;2.50;;;1.83;;
33270;SDS011;53180;51.344;6.152;2023-04-03T08:02:09;1.92;;;1.83;;
33270;SDS011;53180;51.344;6.152;2023-04-03T08:04:38;2.97;;;1.90;;
33270;SDS011;53180;51.344;6.152;2023-04-03T08:07:07;2.47;;;2.28;;
33270;SDS011;53180;51.344;6.152;2023-04-03T08:09:35;3.40;;;2.00;;
33270;SDS011;53180;51.344;6.152;2023-04-03T08:12:04;4.68;;;2.70;;
33270;SDS011;53180;51.344;6.152;2023-04-03T08:14:33;3.10;;;2.00;;
33270;SDS011;53180;51.344;6.152;2023-04-03T08:17:01;6.45;;;2.45;;
33270;SDS011;53180;51.344;6.152;2023-04-03T08:19:31;9.75;;;2.08;;
33270;SDS011;53180;51.344;6.152;2023-04-03T08:22:01;1.98;;;1.63;;
33270;SDS011;53180;51.344;6.152;2023-04-03T08:24:30;11.35;;;1.80;;
33270;SDS011;53180;51.344;6.152;2023-04-03T08:26:58;3.42;;;1.70;;
33270;SDS011;53180;51.344;6.152;2023-04-03T08:29:27;2.55;;;1.77;;
33270;SDS011;53180;51.344;6.152;2023-04-03T08:31:57;9.38;;;2.30;;
33270;SDS011;53180;51.344;6.152;2023-04-03T08:34:25;1.70;;;1.60;;
33270;SDS011;53180;51.344;6.152;2023-04-03T08:36:53;3.42;;;2.30;;
33270;SDS011;53180;51.344;6.152;2023-04-03T08:39:23;6.35;;;2.00;;
33270;SDS011;53180;51.344;6.152;2023-04-03T08:41:51;2.17;;;1.52;;
33270;SDS011;53180;51.344;6.152;2023-04-03T08:46:59;1.70;;;1.60;;
33270;SDS011;53180;51.344;6.152;2023-04-03T08:49:40;1.38;;;1.27;;
33270;SDS011;53180;51.344;6.152;2023-04-03T08:52:15;2.03;;;1.60;;
33270;SDS011;53180;51.344;6.152;2023-04-03T08:54:51;1.90;;;1.42;;
33270;SDS011;53180;51.344;6.152;2023-04-03T08:57:26;8.07;;;1.63;;
33270;SDS011;53180;51.344;6.152;2023-04-03T08:59:59;2.95;;;1.60;;
33270;SDS011;53180;51.344;6.152;2023-04-03T09:02:34;3.50;;;1.67;;
33270;SDS011;53180;51.344;6.152;2023-04-03T09:05:11;6.72;;;1.73;;
33270;SDS011;53180;51.344;6.152;2023-04-03T09:07:44;2.40;;;1.58;;
33270;SDS011;53180;51.344;6.152;2023-04-03T09:10:18;4.25;;;1.80;;
33270;SDS011;53180;51.344;6.152;2023-04-03T09:12:57;3.35;;;1.40;;
33270;SDS011;53180;51.344;6.152;2023-04-03T09:15:30;2.00;;;1.60;;
33270;SDS011;53180;51.344;6.152;2023-04-03T09:18:05;3.05;;;1.73;;
33270;SDS011;53180;51.344;6.152;2023-04-03T09:20:44;2.22;;;1.77;;
33270;SDS011;53180;51.344;6.152;2023-04-03T09:23:22;3.88;;;1.70;;
33270;SDS011;53180;51.344;6.152;2023-04-03T09:26:00;2.40;;;2.08;;
33270;SDS011;53180;51.344;6.152;2023-04-03T09:28:32;1.60;;;1.50;;
33270;SDS011;53180;51.344;6.152;2023-04-03T09:31:20;2.60;;;1.55;;
33270;SDS011;53180;51.344;6.152;2023-04-03T09:33:52;5.40;;;1.80;;
33270;SDS011;53180;51.344;6.152;2023-04-03T09:36:41;3.33;;;1.70;;
33270;SDS011;53180;51.344;6.152;2023-04-03T09:39:13;4.72;;;1.40;;
33270;SDS011;53180;51.344;6.152;2023-04-03T09:41:55;2.38;;;1.60;;
33270;SDS011;53180;51.344;6.152;2023-04-03T09:44:28;3.30;;;1.90;;
33270;SDS011;53180;51.344;6.152;2023-04-03T09:46:58;2.00;;;1.25;;
33270;SDS011;53180;51.344;6.152;2023-04-03T09:49:27;2.33;;;1.60;;
33270;SDS011;53180;51.344;6.152;2023-04-03T09:51:56;1.75;;;1.65;;
33270;SDS011;53180;51.344;6.152;2023-04-03T09:54:26;2.88;;;1.58;;
33270;SDS011;53180;51.344;6.152;2023-04-03T09:57:09;1.65;;;1.55;;
33270;SDS011;53180;51.344;6.152;2023-04-03T09:59:42;1.60;;;1.50;;
33270;SDS011;53180;51.344;6.152;2023-04-03T10:02:28;3.05;;;1.67;;
33270;SDS011;53180;51.344;6.152;2023-04-03T10:05:03;1.80;;;1.50;;
33270;SDS011;53180;51.344;6.152;2023-04-03T10:08:03;3.33;;;2.10;;
33270;SDS011;53180;51.344;6.152;2023-04-03T10:10:38;1.50;;;1.40;;
33270;SDS011;53180;51.344;6.152;2023-04-03T10:13:10;1.92;;;1.45;;
33270;SDS011;53180;51.344;6.152;2023-04-03T10:15:48;1.30;;;1.20;;
33270;SDS011;53180;51.344;6.152;2023-04-03T10:18:27;1.60;;;1.50;;
33270;SDS011;53180;51.344;6.152;2023-04-03T10:21:02;2.45;;;1.63;;
33270;SDS011;53180;51.344;6.152;2023-04-03T10:23:51;2.80;;;1.60;;
33270;SDS011;53180;51.344;6.152;2023-04-03T10:26:32;1.50;;;1.40;;
33270;SDS011;53180;51.344;6.152;2023-04-03T10:29:11;1.50;;;1.40;;
33270;SDS011;53180;51.344;6.152;2023-04-03T10:31:58;1.70;;;1.60;;
33270;SDS011;53180;51.344;6.152;2023-04-03T10:34:38;1.40;;;1.30;;
33270;SDS011;53180;51.344;6.152;2023-04-03T10:37:24;3.13;;;1.50;;
33270;SDS011;53180;51.344;6.152;2023-04-03T10:40:05;1.50;;;1.40;;
33270;SDS011;53180;51.344;6.152;2023-04-03T10:42:48;1.70;;;1.52;;
33270;SDS011;53180;51.344;6.152;2023-04-03T10:45:26;2.95;;;2.00;;
33270;SDS011;53180;51.344;6.152;2023-04-03T10:48:01;1.63;;;1.52;;
33270;SDS011;53180;51.344;6.152;2023-04-03T10:50:38;1.95;;;1.60;;
33270;SDS011;53180;51.344;6.152;2023-04-03T10:53:16;1.20;;;1.20;;
33270;SDS011;53180;51.344;6.152;2023-04-03T10:55:53;1.40;;;1.30;;
33270;SDS011;53180;51.344;6.152;2023-04-03T10:58:29;4.10;;;1.52;;
33270;SDS011;53180;51.344;6.152;2023-04-03T11:01:03;1.70;;;1.60;;
33270;SDS011;53180;51.344;6.152;2023-04-03T11:03:36;1.52;;;1.42;;
33270;SDS011;53180;51.344;6.152;2023-04-03T11:06:10;3.22;;;1.58;;
33270;SDS011;53180;51.344;6.152;2023-04-03T11:08:42;14.05;;;2.97;;
33270;SDS011;53180;51.344;6.152;2023-04-03T11:11:17;2.58;;;1.35;;
33270;SDS011;53180;51.344;6.152;2023-04-03T11:13:50;2.13;;;1.58;;
33270;SDS011;53180;51.344;6.152;2023-04-03T11:16:24;1.90;;;1.50;;
33270;SDS011;53180;51.344;6.152;2023-04-03T11:18:59;1.48;;;1.38;;
33270;SDS011;53180;51.344;6.152;2023-04-03T11:21:33;1.60;;;1.50;;
33270;SDS011;53180;51.344;6.152;2023-04-03T11:24:09;1.83;;;1.40;;
33270;SDS011;53180;51.344;6.152;2023-04-03T11:26:48;2.15;;;1.48;;
33270;SDS011;53180;51.344;6.152;2023-04-03T11:29:19;1.38;;;1.27;;
33270;SDS011;53180;51.344;6.152;2023-04-03T11:32:08;4.68;;;1.70;;
33270;SDS011;53180;51.344;6.152;2023-04-03T11:34:49;2.92;;;1.50;;
33270;SDS011;53180;51.344;6.152;2023-04-03T11:37:22;2.28;;;1.30;;
33270;SDS011;53180;51.344;6.152;2023-04-03T11:39:59;1.25;;;1.15;;
33270;SDS011;53180;51.344;6.152;2023-04-03T11:42:34;1.63;;;1.10;;
33270;SDS011;53180;51.344;6.152;2023-04-03T11:45:23;3.17;;;1.33;;
33270;SDS011;53180;51.344;6.152;2023-04-03T11:48:42;1.55;;;1.42;;
33270;SDS011;53180;51.344;6.152;2023-04-03T12:09:58;1.50;;;1.20;;
33270;SDS011;53180;51.344;6.152;2023-04-03T12:12:29;1.10;;;1.02;;
33270;SDS011;53180;51.344;6.152;2023-04-03T12:18:31;1.15;;;1.08;;
33270;SDS011;53180;51.344;6.152;2023-04-03T12:21:11;2.58;;;1.60;;
33270;SDS011;53180;51.344;6.152;2023-04-03T12:23:55;3.00;;;1.25;;
33270;SDS011;53180;51.344;6.152;2023-04-03T12:26:30;1.20;;;1.10;;
33270;SDS011;53180;51.344;6.152;2023-04-03T12:29:15;1.77;;;1.42;;
33270;SDS011;53180;51.344;6.152;2023-04-03T12:31:55;1.30;;;1.20;;
33270;SDS011;53180;51.344;6.152;2023-04-03T12:34:39;1.38;;;1.27;;
33270;SDS011;53180;51.344;6.152;2023-04-03T12:37:28;1.70;;;1.38;;
33270;SDS011;53180;51.344;6.152;2023-04-03T12:40:15;1.90;;;1.33;;
33270;SDS011;53180;51.344;6.152;2023-04-03T12:42:58;1.07;;;1.07;;
33270;SDS011;53180;51.344;6.152;2023-04-03T12:45:41;5.05;;;1.80;;
33270;SDS011;53180;51.344;6.152;2023-04-03T12:48:15;2.45;;;1.70;;
33270;SDS011;53180;51.344;6.152;2023-04-03T12:50:46;1.73;;;1.60;;
33270;SDS011;53180;51.344;6.152;2023-04-03T12:53:18;1.65;;;1.40;;
33270;SDS011;53180;51.344;6.152;2023-04-03T12:55:53;1.65;;;1.50;;
33270;SDS011;53180;51.344;6.152;2023-04-03T12:58:23;1.42;;;1.30;;
33270;SDS011;53180;51.344;6.152;2023-04-03T13:00:59;2.22;;;1.50;;
33270;SDS011;53180;51.344;6.152;2023-04-03T13:03:30;2.28;;;1.50;;
33270;SDS011;53180;51.344;6.152;2023-04-03T13:05:59;2.05;;;1.65;;
33270;SDS011;53180;51.344;6.152;2023-04-03T13:08:31;2.28;;;1.98;;
33270;SDS011;53180;51.344;6.152;2023-04-03T13:11:00;3.05;;;1.73;;
33270;SDS011;53180;51.344;6.152;2023-04-03T13:13:33;1.73;;;1.63;;
33270;SDS011;53180;51.344;6.152;2023-04-03T13:16:07;1.70;;;1.60;;
33270;SDS011;53180;51.344;6.152;2023-04-03T13:18:37;1.48;;;1.38;;
33270;SDS011;53180;51.344;6.152;2023-04-03T13:21:07;1.65;;;1.52;;
33270;SDS011;53180;51.344;6.152;2023-04-03T13:23:44;2.22;;;1.38;;
33270;SDS011;53180;51.344;6.152;2023-04-03T13:26:24;1.58;;;1.40;;
33270;SDS011;53180;51.344;6.152;2023-04-03T13:28:56;2.13;;;1.60;;
33270;SDS011;53180;51.344;6.152;2023-04-03T13:31:29;3.03;;;1.80;;
33270;SDS011;53180;51.344;6.152;2023-04-03T13:34:02;2.03;;;1.55;;
33270;SDS011;53180;51.344;6.152;2023-04-03T13:36:35;3.65;;;1.67;;
33270;SDS011;53180;51.344;6.152;2023-04-03T13:39:21;1.48;;;1.38;;
33270;SDS011;53180;51.344;6.152;2023-04-03T13:41:54;3.13;;;1.48;;
33270;SDS011;53180;51.344;6.152;2023-04-03T13:44:29;1.48;;;1.38;;
33270;SDS011;53180;51.344;6.152;2023-04-03T13:47:14;1.33;;;1.23;;
33270;SDS011;53180;51.344;6.152;2023-04-03T13:49:58;1.42;;;1.33;;
33270;SDS011;53180;51.344;6.152;2023-04-03T13:52:30;1.83;;;1.65;;
33270;SDS011;53180;51.344;6.152;2023-04-03T13:55:11;6.55;;;1.35;;
33270;SDS011;53180;51.344;6.152;2023-04-03T13:57:52;4.45;;;1.70;;
33270;SDS011;53180;51.344;6.152;2023-04-03T14:00:32;1.60;;;1.50;;
33270;SDS011;53180;51.344;6.152;2023-04-03T14:03:13;1.20;;;1.10;;
33270;SDS011;53180;51.344;6.152;2023-04-03T14:08:15;1.10;;;1.10;;
33270;SDS011;53180;51.344;6.152;2023-04-03T14:10:50;1.67;;;1.58;;
33270;SDS011;53180;51.344;6.152;2023-04-03T14:13:19;1.33;;;1.23;;
33270;SDS011;53180;51.344;6.152;2023-04-03T14:15:48;1.58;;;1.48;;
33270;SDS011;53180;51.344;6.152;2023-04-03T14:18:20;1.38;;;1.27;;
33270;SDS011;53180;51.344;6.152;2023-04-03T14:20:49;1.58;;;1.38;;
33270;SDS011;53180;51.344;6.152;2023-04-03T14:23:18;1.60;;;1.50;;
33270;SDS011;53180;51.344;6.152;2023-04-03T14:25:46;1.60;;;1.50;;
33270;SDS011;53180;51.344;6.152;2023-04-03T14:28:17;1.67;;;1.27;;
33270;SDS011;53180;51.344;6.152;2023-04-03T14:30:48;3.35;;;1.60;;
33270;SDS011;53180;51.344;6.152;2023-04-03T14:33:20;2.45;;;1.50;;
33270;SDS011;53180;51.344;6.152;2023-04-03T14:35:50;1.30;;;1.20;;
33270;SDS011;53180;51.344;6.152;2023-04-03T14:38:23;1.95;;;1.63;;
33270;SDS011;53180;51.344;6.152;2023-04-03T14:40:54;9.30;;;1.65;;
33270;SDS011;53180;51.344;6.152;2023-04-03T14:43:42;2.00;;;1.35;;
33270;SDS011;53180;51.344;6.152;2023-04-03T14:46:13;1.58;;;1.48;;
33270;SDS011;53180;51.344;6.152;2023-04-03T14:48:44;1.48;;;1.33;;
33270;SDS011;53180;51.344;6.152;2023-04-03T14:51:13;3.42;;;1.75;;
33270;SDS011;53180;51.344;6.152;2023-04-03T14:53:43;3.63;;;1.50;;
33270;SDS011;53180;51.344;6.152;2023-04-03T14:56:12;1.73;;;1.55;;
33270;SDS011;53180;51.344;6.152;2023-04-03T14:58:44;1.73;;;1.60;;
33270;SDS011;53180;51.344;6.152;2023-04-03T15:01:16;1.45;;;1.30;;
33270;SDS011;53180;51.344;6.152;2023-04-03T15:03:45;1.50;;;1.40;;
33270;SDS011;53180;51.344;6.152;2023-04-03T15:06:14;1.70;;;1.60;;
33270;SDS011;53180;51.344;6.152;2023-04-03T15:08:43;2.08;;;1.85;;
33270;SDS011;53180;51.344;6.152;2023-04-03T15:11:13;1.58;;;1.40;;
33270;SDS011;53180;51.344;6.152;2023-04-03T15:13:42;1.70;;;1.60;;
33270;SDS011;53180;51.344;6.152;2023-04-03T15:16:14;2.50;;;1.30;;
33270;SDS011;53180;51.344;6.152;2023-04-03T15:18:46;1.50;;;1.40;;
33270;SDS011;53180;51.344;6.152;2023-04-03T15:21:15;2.92;;;1.80;;
33270;SDS011;53180;51.344;6.152;2023-04-03T15:23:43;2.03;;;1.70;;
33270;SDS011;53180;51.344;6.152;2023-04-03T15:26:11;2.00;;;1.60;;
33270;SDS011;53180;51.344;6.152;2023-04-03T15:28:40;1.80;;;1.70;;
33270;SDS011;53180;51.344;6.152;2023-04-03T15:31:15;2.40;;;1.50;;
33270;SDS011;53180;51.344;6.152;2023-04-03T15:33:43;6.70;;;3.15;;
33270;SDS011;53180;51.344;6.152;2023-04-03T15:36:11;2.33;;;2.13;;
33270;SDS011;53180;51.344;6.152;2023-04-03T15:38:59;2.15;;;1.50;;
33270;SDS011;53180;51.344;6.152;2023-04-03T15:41:27;2.10;;;1.70;;
33270;SDS011;53180;51.344;6.152;2023-04-03T15:43:55;1.60;;;1.50;;
33270;SDS011;53180;51.344;6.152;2023-04-03T15:46:25;3.00;;;1.90;;
33270;SDS011;53180;51.344;6.152;2023-04-03T15:48:54;1.60;;;1.50;;
33270;SDS011;53180;51.344;6.152;2023-04-03T15:51:23;1.73;;;1.50;;